Search for airport 
image banner adimage banner adimage banner ad
image banner ad

1CA7 - L A Times Costa Mesa

Located in Costa Mesa, United States

ICAO - 1CA7, IATA -

Data provided by Airmate  

General information

Coordinates: N33°41'35" W117°55'1"
Elevation is 35 feet MSL.
Magnetic variation is 14° East
View others Airports in California

Operational data

Special qualification required
Current time UTC:
Current local time:
METAR: KSNA 150953Z AUTO 19004KT 10SM CLR 19/16 A2985 RMK AO2 SLP107 T01940156 $
TAF: KSNA 150520Z 1506/1606 VRB04KT P6SM FEW006 FEW250 FM152000 23008KT P6SM SCT250 FM160400 VRB05KT P6SM FEW007
View NOTAMs / SUP AIP / TFR affecting this airport [VIEW]
Communications frequencies: [VIEW]

Runways:

Airport contact information

Address: Costa Mesa United States

Satellite view of 1CA7